Time;durP1;ratioP1;P1;durP2;ratioP2;P2;SDS_P1;SDS_P2;PMS_P1;PMS_P2;Temp;Humidity;BMP_temperature;BMP_pressure;BME280_temperature;BME280_humidity;BME280_pressure;Samples;Min_cycle;Max_cycle;Signal;HPM_P1;HPM_P2
2022/09/14 00:02:06;;;;;;;4.68;3.00;;;21.70;99.20;;;;;;6235733;28;20049;-81
2022/09/14 00:05:08;;;;;;;4.88;3.17;;;21.70;99.30;;;;;;6235377;28;20041;-82
2022/09/14 00:08:10;;;;;;;6.55;3.40;;;21.70;99.40;;;;;;6236421;28;20061;-81
2022/09/14 00:11:14;;;;;;;4.88;3.63;;;21.60;99.50;;;;;;6235517;28;20053;-82
2022/09/14 00:14:16;;;;;;;9.77;3.92;;;21.50;99.80;;;;;;6236429;28;20053;-81
2022/09/14 00:17:20;;;;;;;6.22;3.10;;;21.40;99.90;;;;;;6241094;28;20054;-79
2022/09/14 00:20:21;;;;;;;5.10;3.97;;;21.40;99.90;;;;;;6231689;28;20054;-79
2022/09/14 00:23:23;;;;;;;10.38;4.00;;;21.40;99.90;;;;;;6229979;28;20407;-80
2022/09/14 00:26:25;;;;;;;6.80;3.35;;;21.40;99.90;;;;;;6230275;28;20126;-81
2022/09/14 00:29:27;;;;;;;5.03;3.40;;;21.50;99.90;;;;;;6229475;28;20050;-81
2022/09/14 00:32:30;;;;;;;10.32;4.47;;;21.50;99.90;;;;;;6229722;28;20057;-81
2022/09/14 00:35:34;;;;;;;5.85;3.88;;;21.50;99.90;;;;;;6229995;28;20053;-81
2022/09/14 00:38:36;;;;;;;7.68;3.88;;;21.50;99.90;;;;;;6228979;28;20068;-81
2022/09/14 00:41:41;;;;;;;7.80;3.63;;;21.60;99.90;;;;;;6230400;28;20057;-80
2022/09/14 00:45:02;;;;;;;10.98;4.65;;;21.70;99.90;;;;;;6229527;28;20420;-80
2022/09/14 00:48:05;;;;;;;8.80;4.10;;;21.70;99.90;;;;;;6229636;28;20050;-81
2022/09/14 00:51:07;;;;;;;7.63;4.05;;;21.80;99.90;;;;;;6235767;28;20045;-81
2022/09/14 00:54:09;;;;;;;8.40;4.40;;;21.80;99.90;;;;;;6252589;28;20041;-81
2022/09/14 00:57:11;;;;;;;8.35;4.55;;;21.80;99.90;;;;;;6248931;28;20542;-80
2022/09/14 01:00:17;;;;;;;9.43;5.38;;;21.90;99.90;;;;;;6254383;28;20056;-81
2022/09/14 01:03:21;;;;;;;8.93;4.78;;;21.80;99.90;;;;;;6254514;28;20045;-81
2022/09/14 01:06:31;;;;;;;8.43;5.20;;;21.80;99.90;;;;;;6253179;28;20052;-81
2022/09/14 01:09:42;;;;;;;9.75;5.85;;;21.80;99.90;;;;;;6253312;28;20045;-81
2022/09/14 01:12:51;;;;;;;8.30;6.50;;;21.80;99.90;;;;;;6252976;28;20538;-80
2022/09/14 01:16:03;;;;;;;11.63;7.10;;;21.80;99.90;;;;;;6253638;28;20053;-81
2022/09/14 01:19:15;;;;;;;17.05;7.53;;;21.80;99.90;;;;;;6254448;28;20499;-81
2022/09/14 01:22:23;;;;;;;10.68;6.97;;;21.60;99.90;;;;;;6253467;28;20100;-81
2022/09/14 01:25:39;;;;;;;17.42;9.18;;;21.60;99.90;;;;;;6253425;28;20041;-81
2022/09/14 01:28:47;;;;;;;18.92;7.97;;;21.50;99.90;;;;;;6254378;28;20041;-81
2022/09/14 01:31:54;;;;;;;24.52;10.05;;;21.30;99.90;;;;;;6254188;28;20057;-81
2022/09/14 01:35:01;;;;;;;26.98;11.18;;;21.10;99.90;;;;;;6253084;28;20037;-80
2022/09/14 01:38:08;;;;;;;23.25;12.23;;;20.90;99.90;;;;;;6252701;28;20056;-80
2022/09/14 01:41:13;;;;;;;22.95;13.25;;;20.80;99.90;;;;;;6253373;28;20041;-80
2022/09/14 01:44:21;;;;;;;36.65;14.23;;;20.60;99.90;;;;;;6253923;28;20064;-80
2022/09/14 01:47:27;;;;;;;34.47;14.98;;;20.40;99.90;;;;;;6253853;28;20045;-81
2022/09/14 01:50:34;;;;;;;30.10;15.73;;;20.30;99.90;;;;;;6256169;28;20103;-79
2022/09/14 01:53:41;;;;;;;39.78;16.88;;;20.30;99.90;;;;;;6241851;28;20038;-80
2022/09/14 01:56:51;;;;;;;32.95;16.70;;;20.20;99.90;;;;;;6257452;28;20399;-80
2022/09/14 01:59:58;;;;;;;35.63;16.55;;;20.00;99.90;;;;;;6256593;28;20506;-80
2022/09/14 02:03:06;;;;;;;33.70;17.67;;;20.00;99.90;;;;;;6257006;28;20045;-80
2022/09/14 02:06:14;;;;;;;43.67;18.57;;;20.00;99.90;;;;;;6255143;28;20046;-80
2022/09/14 02:09:18;;;;;;;45.97;19.92;;;19.90;99.90;;;;;;6254233;28;20052;-80
2022/09/14 02:12:21;;;;;;;43.00;18.65;;;19.80;99.90;;;;;;6254424;28;20049;-79
2022/09/14 02:15:25;;;;;;;39.60;17.75;;;19.60;99.90;;;;;;6254387;28;20107;-80
2022/09/14 02:18:26;;;;;;;43.80;17.95;;;19.50;99.90;;;;;;6252625;28;20049;-80
2022/09/14 02:21:30;;;;;;;40.38;18.58;;;19.40;99.90;;;;;;6251460;28;20076;-79
2022/09/14 02:24:33;;;;;;;44.15;18.17;;;19.40;99.90;;;;;;6250830;28;20590;-80
2022/09/14 02:27:35;;;;;;;37.78;16.35;;;19.40;99.90;;;;;;6251250;28;20060;-81
2022/09/14 02:30:56;;;;;;;34.63;15.55;;;19.20;99.90;;;;;;6251439;28;20069;-79
2022/09/14 02:34:08;;;;;;;38.83;15.32;;;19.10;99.90;;;;;;6252362;28;20084;-81
2022/09/14 02:37:13;;;;;;;42.63;16.50;;;19.10;99.90;;;;;;6252960;28;20045;-81
2022/09/14 02:40:24;;;;;;;42.40;16.77;;;19.10;99.90;;;;;;6252610;28;20057;-81
2022/09/14 02:43:35;;;;;;;37.47;17.67;;;19.20;99.90;;;;;;6252802;28;20072;-80
2022/09/14 02:46:45;;;;;;;37.10;18.00;;;19.20;99.90;;;;;;6253399;28;20056;-81
2022/09/14 02:49:54;;;;;;;51.72;19.15;;;19.20;99.90;;;;;;6252802;28;20056;-80
2022/09/14 02:53:01;;;;;;;45.25;18.05;;;19.20;99.90;;;;;;6244576;28;20522;-80
2022/09/14 02:56:07;;;;;;;56.03;19.77;;;19.20;99.90;;;;;;6232018;28;20045;-81
2022/09/14 02:59:09;;;;;;;55.25;19.23;;;19.20;99.90;;;;;;6229100;28;20116;-81
2022/09/14 03:02:12;;;;;;;47.17;20.73;;;19.30;99.90;;;;;;6229122;28;20054;-81
2022/09/14 03:05:14;;;;;;;46.63;19.10;;;19.30;99.90;;;;;;6229238;28;20042;-81
2022/09/14 03:08:16;;;;;;;49.17;20.27;;;19.40;99.90;;;;;;6227917;28;20496;-81
2022/09/14 03:11:17;;;;;;;40.75;18.30;;;19.40;99.90;;;;;;6226949;28;20046;-80
2022/09/14 03:14:19;;;;;;;41.72;19.25;;;19.40;99.90;;;;;;6227534;28;20038;-79
2022/09/14 03:17:22;;;;;;;52.00;19.85;;;19.20;99.90;;;;;;6226755;28;20427;-79
2022/09/14 03:20:26;;;;;;;50.38;19.63;;;19.10;99.90;;;;;;6228695;28;20045;-81
2022/09/14 03:23:27;;;;;;;56.50;21.23;;;19.20;99.90;;;;;;6232541;28;20060;-80
2022/09/14 03:26:29;;;;;;;44.03;19.42;;;19.30;99.90;;;;;;6232866;28;20526;-80
2022/09/14 03:29:31;;;;;;;44.47;20.65;;;19.30;99.90;;;;;;6232687;28;20042;-81
2022/09/14 03:32:34;;;;;;;46.75;18.80;;;19.50;99.90;;;;;;6233071;28;20057;-81
2022/09/14 03:35:36;;;;;;;46.05;19.38;;;19.50;99.90;;;;;;6232476;28;20412;-81
2022/09/14 03:38:38;;;;;;;54.13;22.08;;;19.60;99.90;;;;;;6232616;28;20555;-81
2022/09/14 03:41:39;;;;;;;41.17;19.98;;;19.60;99.90;;;;;;6231973;28;20544;-81
2022/09/14 03:44:41;;;;;;;52.95;21.10;;;19.70;99.90;;;;;;6232444;28;20045;-81
2022/09/14 03:47:45;;;;;;;61.38;25.08;;;19.70;99.90;;;;;;6232228;28;20049;-81
2022/09/14 03:50:47;;;;;;;78.00;27.83;;;19.70;99.90;;;;;;6232916;28;20100;-81
2022/09/14 03:53:49;;;;;;;91.80;27.00;;;19.60;99.90;;;;;;6237123;28;20081;-81
2022/09/14 03:56:52;;;;;;;83.43;26.73;;;19.50;99.90;;;;;;6238478;28;20500;-80
2022/09/14 03:59:53;;;;;;;82.68;27.20;;;19.40;99.90;;;;;;6230905;28;20076;-80
2022/09/14 04:02:59;;;;;;;76.95;25.08;;;19.20;99.90;;;;;;6228610;28;20062;-80
2022/09/14 04:06:04;;;;;;;82.32;27.90;;;19.20;99.90;;;;;;6229228;28;20100;-80
2022/09/14 04:09:05;;;;;;;80.30;26.35;;;19.20;99.90;;;;;;6229073;28;20042;-80
2022/09/14 04:12:07;;;;;;;67.18;26.98;;;19.30;99.90;;;;;;6229646;28;20423;-79
2022/09/14 04:15:10;;;;;;;80.57;27.48;;;19.30;99.90;;;;;;6229616;28;20526;-79
2022/09/14 04:18:13;;;;;;;81.78;27.73;;;19.30;99.90;;;;;;6233204;28;20045;-79
2022/09/14 04:21:17;;;;;;;71.28;27.48;;;19.30;99.90;;;;;;6252534;28;20054;-80
2022/09/14 04:24:19;;;;;;;82.47;27.30;;;19.30;99.90;;;;;;6254696;28;20042;-80
2022/09/14 04:27:20;;;;;;;83.75;27.90;;;19.40;99.90;;;;;;6252545;28;20060;-79
2022/09/14 04:30:22;;;;;;;80.80;28.83;;;19.40;99.90;;;;;;6253376;28;20045;-80
2022/09/14 04:33:26;;;;;;;93.85;30.60;;;19.40;99.90;;;;;;6254339;28;20053;-80
2022/09/14 04:36:29;;;;;;;89.00;29.17;;;19.50;99.90;;;;;;6253690;28;20045;-79
2022/09/14 04:39:33;;;;;;;113.32;28.30;;;19.50;99.90;;;;;;6254701;28;20084;-80
2022/09/14 04:42:35;;;;;;;117.55;30.85;;;19.60;99.90;;;;;;6253307;28;20042;-80
2022/09/14 04:45:37;;;;;;;95.30;26.48;;;19.50;99.90;;;;;;6253668;28;20060;-80
2022/09/14 04:48:43;;;;;;;103.35;26.70;;;19.40;99.90;;;;;;6252262;28;20144;-80
2022/09/14 04:51:45;;;;;;;101.32;25.67;;;19.40;99.90;;;;;;6254785;28;20046;-80
2022/09/14 04:54:46;;;;;;;90.13;26.13;;;19.40;99.90;;;;;;6246403;28;20049;-80
2022/09/14 04:57:48;;;;;;;77.82;26.02;;;19.40;99.90;;;;;;6249684;28;20053;-80
2022/09/14 05:00:50;;;;;;;98.50;28.00;;;19.60;99.90;;;;;;6253769;28;20049;-80
2022/09/14 05:03:54;;;;;;;87.43;28.20;;;19.80;99.90;;;;;;6253073;28;20054;-79
2022/09/14 05:06:56;;;;;;;106.00;30.58;;;19.70;99.90;;;;;;6253217;28;20061;-78
2022/09/14 05:09:57;;;;;;;99.78;28.83;;;19.80;99.90;;;;;;6252873;28;20563;-80
2022/09/14 05:12:59;;;;;;;99.03;29.80;;;19.80;99.90;;;;;;6252796;28;20053;-80
2022/09/14 05:16:06;;;;;;;97.38;29.60;;;19.80;99.90;;;;;;6252524;28;20042;-80
2022/09/14 05:19:11;;;;;;;119.82;28.60;;;19.80;99.90;;;;;;6253585;28;20093;-80
2022/09/14 05:22:14;;;;;;;91.35;25.88;;;19.80;99.90;;;;;;6253884;28;20042;-80
2022/09/14 05:25:16;;;;;;;89.32;27.35;;;19.80;99.90;;;;;;6254248;28;20053;-80
2022/09/14 05:28:17;;;;;;;100.10;28.73;;;19.80;99.90;;;;;;6254079;28;20052;-80
2022/09/14 05:31:20;;;;;;;110.50;30.75;;;19.80;99.90;;;;;;6255032;28;20503;-80
2022/09/14 05:34:23;;;;;;;86.32;25.65;;;19.90;99.90;;;;;;6253198;28;20124;-80
2022/09/14 05:37:25;;;;;;;90.57;27.00;;;19.90;99.90;;;;;;6254078;28;20058;-80
2022/09/14 05:40:26;;;;;;;109.57;27.30;;;19.90;99.90;;;;;;6253630;28;20052;-80
2022/09/14 05:43:29;;;;;;;91.40;26.08;;;19.90;99.90;;;;;;6255195;28;20061;-80
2022/09/14 05:46:31;;;;;;;105.00;28.02;;;19.80;99.90;;;;;;6252413;28;20057;-80
2022/09/14 05:49:34;;;;;;;103.38;27.85;;;19.60;99.90;;;;;;6252043;28;20046;-80
2022/09/14 05:52:35;;;;;;;81.88;25.77;;;19.60;99.90;;;;;;6251995;28;20045;-80
2022/09/14 05:55:37;;;;;;;81.95;25.73;;;19.60;99.90;;;;;;6247866;28;20526;-80
2022/09/14 05:58:40;;;;;;;89.35;27.00;;;19.60;99.90;;;;;;6249349;28;20554;-80
2022/09/14 06:01:42;;;;;;;70.82;25.95;;;19.60;99.90;;;;;;6252278;28;20052;-81
2022/09/14 06:04:45;;;;;;;82.82;26.40;;;19.60;99.90;;;;;;6253688;28;20120;-81
2022/09/14 06:07:51;;;;;;;65.57;24.27;;;19.70;99.90;;;;;;6252112;28;20057;-80
2022/09/14 06:10:53;;;;;;;71.22;25.80;;;19.70;99.90;;;;;;6251506;28;20046;-80
2022/09/14 06:13:55;;;;;;;69.28;24.75;;;19.70;99.90;;;;;;6252181;28;20048;-80
2022/09/14 06:16:57;;;;;;;75.70;25.60;;;19.80;99.90;;;;;;6252794;28;20038;-80
2022/09/14 06:20:00;;;;;;;74.28;26.95;;;19.90;99.90;;;;;;6255097;28;20050;-80
2022/09/14 06:23:02;;;;;;;81.30;26.95;;;20.00;99.90;;;;;;6253765;28;20041;-80
2022/09/14 06:26:05;;;;;;;75.35;26.90;;;20.00;99.90;;;;;;6255396;28;20049;-81
2022/09/14 06:29:06;;;;;;;69.47;26.33;;;20.00;99.90;;;;;;6254989;28;20056;-80
2022/09/14 06:32:09;;;;;;;72.03;26.08;;;20.00;99.90;;;;;;6253684;28;20061;-80
2022/09/14 06:35:12;;;;;;;76.55;28.45;;;20.10;99.90;;;;;;6254056;28;20052;-80
2022/09/14 06:38:13;;;;;;;79.13;27.92;;;20.20;99.90;;;;;;6254427;28;20049;-80
2022/09/14 06:41:17;;;;;;;77.70;29.88;;;20.30;99.90;;;;;;6253802;28;20052;-80
2022/09/14 06:44:19;;;;;;;80.55;27.75;;;20.30;99.90;;;;;;6254299;28;20054;-80
2022/09/14 06:47:22;;;;;;;80.82;30.05;;;20.40;99.90;;;;;;6253142;28;20053;-81
2022/09/14 06:50:25;;;;;;;84.82;29.17;;;20.50;99.90;;;;;;6252477;28;20064;-82
2022/09/14 06:53:27;;;;;;;65.18;26.27;;;20.50;99.90;;;;;;6251614;28;20071;-81
2022/09/14 06:56:32;;;;;;;74.50;28.98;;;20.50;99.90;;;;;;6243944;28;20050;-81
2022/09/14 06:59:33;;;;;;;76.07;27.73;;;20.50;99.90;;;;;;6234662;28;20718;-82
2022/09/14 07:02:35;;;;;;;69.47;26.98;;;20.50;99.90;;;;;;6231134;28;20057;-81
2022/09/14 07:05:38;;;;;;;58.58;25.10;;;20.60;99.90;;;;;;6231187;28;20054;-81
2022/09/14 07:08:40;;;;;;;75.38;28.73;;;20.70;99.90;;;;;;6229768;28;20133;-81
2022/09/14 07:11:42;;;;;;;70.35;28.75;;;20.80;99.90;;;;;;6231424;28;20437;-81
2022/09/14 07:14:43;;;;;;;66.32;26.90;;;20.90;99.90;;;;;;6230960;28;20056;-81
2022/09/14 07:17:46;;;;;;;70.70;27.23;;;21.20;99.90;;;;;;6229962;28;20049;-81
2022/09/14 07:20:49;;;;;;;64.80;29.00;;;21.50;99.90;;;;;;6230679;28;20052;-81
2022/09/14 07:23:50;;;;;;;66.13;28.20;;;21.90;99.90;;;;;;6231549;28;20042;-81
2022/09/14 07:26:52;;;;;;;52.67;25.63;;;22.20;99.90;;;;;;6231892;28;20049;-81
2022/09/14 07:29:54;;;;;;;42.97;23.50;;;22.30;99.90;;;;;;6230455;28;20198;-81
2022/09/14 07:32:56;;;;;;;43.92;23.48;;;22.70;99.90;;;;;;6231660;28;20042;-81
2022/09/14 07:36:06;;;;;;;38.78;20.65;;;23.60;99.90;;;;;;6233480;28;20046;-82
2022/09/14 07:39:10;;;;;;;28.48;17.33;;;24.10;99.90;;;;;;6229743;28;20057;-82
2022/09/14 07:42:12;;;;;;;30.40;16.48;;;24.00;99.90;;;;;;6229594;28;20049;-82
2022/09/14 07:45:14;;;;;;;22.88;15.57;;;24.20;99.90;;;;;;6229451;28;20045;-82
2022/09/14 07:48:15;;;;;;;27.15;15.63;;;24.00;99.90;;;;;;6231068;28;20054;-81
2022/09/14 07:51:18;;;;;;;29.13;15.23;;;23.60;99.90;;;;;;6183120;28;20546;-82
2022/09/14 07:54:20;;;;;;;30.88;15.65;;;23.40;99.90;;;;;;6253097;28;20415;-80
2022/09/14 07:57:22;;;;;;;24.08;14.38;;;23.30;99.90;;;;;;6255642;28;20057;-81
2022/09/14 08:00:24;;;;;;;25.08;12.98;;;23.40;99.90;;;;;;6254079;28;20083;-81
2022/09/14 08:03:26;;;;;;;22.95;12.80;;;23.60;99.90;;;;;;6254760;28;20053;-81
2022/09/14 08:06:29;;;;;;;19.33;12.90;;;23.90;99.90;;;;;;6254180;28;20053;-82
2022/09/14 08:09:30;;;;;;;22.45;11.02;;;24.30;99.90;;;;;;6254526;28;20049;-81
2022/09/14 08:12:32;;;;;;;14.65;9.90;;;24.50;99.90;;;;;;6253443;28;20053;-82
2022/09/14 08:15:34;;;;;;;14.10;9.57;;;24.90;99.90;;;;;;6255320;28;20052;-81
2022/09/14 08:18:37;;;;;;;14.70;9.02;;;25.60;99.90;;;;;;6254735;28;20053;-82
2022/09/14 08:21:40;;;;;;;15.23;8.73;;;26.20;99.90;;;;;;6254334;28;20072;-82
2022/09/14 08:24:42;;;;;;;13.73;7.15;;;26.80;99.90;;;;;;6254677;28;20412;-82
2022/09/14 08:27:44;;;;;;;11.85;7.60;;;27.20;99.90;;;;;;6255058;28;20056;-82
2022/09/14 08:30:46;;;;;;;12.52;5.88;;;27.30;99.90;;;;;;6254474;28;20053;-82
2022/09/14 08:33:49;;;;;;;15.05;6.35;;;27.50;99.90;;;;;;6254537;28;20045;-82
2022/09/14 08:36:53;;;;;;;10.88;5.28;;;27.60;99.90;;;;;;6254174;28;20052;-81
2022/09/14 08:39:55;;;;;;;7.00;4.53;;;28.10;99.90;;;;;;6254914;28;20053;-80
2022/09/14 08:43:01;;;;;;;9.00;3.13;;;28.50;99.40;;;;;;6255589;28;20048;-81
2022/09/14 08:46:08;;;;;;;9.73;3.25;;;29.00;98.30;;;;;;6253952;28;20041;-81
2022/09/14 08:49:17;;;;;;;8.43;3.30;;;29.00;97.20;;;;;;6253890;28;20049;-82
2022/09/14 08:52:25;;;;;;;4.72;2.20;;;28.80;96.10;;;;;;6254122;28;20050;-80
2022/09/14 08:55:35;;;;;;;10.60;2.72;;;28.60;96.50;;;;;;6254255;28;20049;-80
2022/09/14 08:58:51;;;;;;;10.40;3.38;;;28.30;96.00;;;;;;6252900;28;20045;-80
2022/09/14 09:02:03;;;;;;;9.43;3.38;;;27.70;98.60;;;;;;6229989;28;20052;-81
2022/09/14 09:05:28;;;;;;;11.48;3.35;;;27.00;99.90;;;;;;6226792;28;20407;-80
2022/09/14 09:08:37;;;;;;;16.15;4.00;;;26.30;99.90;;;;;;6227591;28;20046;-80
2022/09/14 09:11:41;;;;;;;7.70;3.53;;;26.00;99.90;;;;;;6227966;28;20053;-80
2022/09/14 09:14:47;;;;;;;8.43;3.50;;;25.90;99.90;;;;;;6228299;28;20049;-81
2022/09/14 09:17:54;;;;;;;12.30;4.47;;;26.00;99.90;;;;;;6227069;28;20041;-80
2022/09/14 09:21:02;;;;;;;10.15;3.17;;;26.70;99.90;;;;;;6227440;28;20041;-80
2022/09/14 09:24:17;;;;;;;5.43;3.13;;;27.80;99.90;;;;;;6240491;28;20048;-80
2022/09/14 09:27:18;;;;;;;4.18;1.60;;;29.20;99.90;;;;;;6246310;28;20482;-80
2022/09/14 09:30:20;;;;;;;4.50;1.92;;;30.50;98.10;;;;;;6253717;28;20045;-80
2022/09/14 09:33:24;;;;;;;9.85;1.88;;;31.30;95.20;;;;;;6254483;28;20498;-82
2022/09/14 09:36:29;;;;;;;6.25;1.67;;;31.60;93.00;;;;;;6250257;28;20049;-80
2022/09/14 09:39:33;;;;;;;5.90;1.77;;;31.40;91.90;;;;;;6250034;28;20053;-80
2022/09/14 09:42:35;;;;;;;8.10;1.88;;;30.80;91.10;;;;;;6250052;28;20077;-80
2022/09/14 09:45:56;;;;;;;9.18;1.45;;;30.30;92.10;;;;;;6249853;28;20047;-81
2022/09/14 09:48:59;;;;;;;4.45;1.38;;;30.00;93.40;;;;;;6249423;28;20121;-80
2022/09/14 09:52:08;;;;;;;9.23;1.95;;;29.90;92.90;;;;;;6249596;28;20518;-81
2022/09/14 09:55:20;;;;;;;3.88;1.30;;;29.90;92.70;;;;;;6250428;28;20053;-81
2022/09/14 09:58:29;;;;;;;7.13;1.75;;;29.80;92.40;;;;;;6227166;28;20052;-83
2022/09/14 10:01:33;;;;;;;8.68;1.35;;;29.90;92.60;;;;;;6249378;28;20134;-80
2022/09/14 10:04:38;;;;;;;4.47;1.17;;;29.90;91.80;;;;;;6252218;28;20053;-80
2022/09/14 10:07:50;;;;;;;2.75;1.10;;;30.00;91.60;;;;;;6252903;28;20144;-79
2022/09/14 10:10:53;;;;;;;3.83;1.23;;;30.10;91.20;;;;;;6248182;28;20056;-80
2022/09/14 10:13:54;;;;;;;11.07;1.30;;;30.00;90.80;;;;;;6247880;28;20046;-79
2022/09/14 10:17:05;;;;;;;4.45;1.08;;;29.80;90.50;;;;;;6248487;28;20041;-80
2022/09/14 10:20:20;;;;;;;3.15;1.30;;;29.90;89.90;;;;;;6247748;28;20053;-80
2022/09/14 10:23:24;;;;;;;1.83;0.90;;;30.00;91.10;;;;;;6252743;28;20049;-82
2022/09/14 10:26:33;;;;;;;3.40;1.00;;;30.20;90.30;;;;;;6252733;28;20049;-81
2022/09/14 10:29:39;;;;;;;2.70;1.10;;;30.40;88.70;;;;;;6253106;28;20046;-81
2022/09/14 10:32:45;;;;;;;2.47;0.85;;;30.70;86.20;;;;;;6258776;28;20054;-81
2022/09/14 10:35:54;;;;;;;5.25;0.93;;;30.70;86.50;;;;;;6255422;28;20060;-80
2022/09/14 10:39:00;;;;;;;1.27;0.60;;;30.70;84.00;;;;;;6252797;28;20049;-80
2022/09/14 10:42:12;;;;;;;7.18;1.98;;;30.70;83.30;;;;;;6252975;28;20050;-81
2022/09/14 10:45:19;;;;;;;4.72;0.93;;;30.60;84.50;;;;;;6252646;28;20045;-80
2022/09/14 10:48:44;;;;;;;4.65;1.00;;;30.70;85.00;;;;;;6253273;28;20050;-81
2022/09/14 10:51:54;;;;;;;3.28;1.10;;;31.00;84.70;;;;;;6252717;28;20049;-80
2022/09/14 10:55:14;;;;;;;2.65;1.10;;;31.30;82.30;;;;;;6252396;28;20049;-80
2022/09/14 10:58:37;;;;;;;6.45;0.95;;;31.60;82.10;;;;;;6227548;28;20049;-80
2022/09/14 11:02:09;;;;;;;5.85;0.80;;;32.30;79.20;;;;;;6242225;28;20419;-81
2022/09/14 11:05:21;;;;;;;4.40;1.25;;;32.70;76.70;;;;;;6224995;28;20048;-80
2022/09/14 11:08:31;;;;;;;1.85;0.70;;;32.50;75.50;;;;;;6251716;28;20137;-80
2022/09/14 11:11:46;;;;;;;7.25;1.00;;;32.20;75.50;;;;;;6252778;28;20057;-82
2022/09/14 11:15:01;;;;;;;2.88;0.98;;;32.00;75.20;;;;;;6251973;28;20164;-81
2022/09/14 11:18:13;;;;;;;8.13;1.58;;;31.80;75.70;;;;;;6246169;28;20044;-80
2022/09/14 11:21:20;;;;;;;7.68;1.05;;;31.80;75.40;;;;;;6253677;28;20069;-80
2022/09/14 11:24:24;;;;;;;;;;;31.70;72.80;;;;;;6246680;28;20048;-80
2022/09/14 11:27:32;;;;;;;2.90;0.60;;;31.50;73.70;;;;;;6259616;28;19948;-81
2022/09/14 11:30:40;;;;;;;7.82;1.17;;;31.30;73.90;;;;;;6252533;28;20649;-81
2022/09/14 11:33:47;;;;;;;2.22;0.90;;;31.10;74.80;;;;;;6259587;28;20057;-82
2022/09/14 11:36:53;;;;;;;4.25;1.13;;;31.00;75.50;;;;;;6257334;28;20494;-80
2022/09/14 11:40:06;;;;;;;3.45;0.93;;;30.70;75.00;;;;;;6262621;28;20069;-81
2022/09/14 11:43:13;;;;;;;5.53;1.52;;;30.40;75.30;;;;;;6262519;28;20073;-81
2022/09/14 11:46:21;;;;;;;3.33;0.60;;;30.20;76.00;;;;;;6259883;28;20045;-81
2022/09/14 11:49:29;;;;;;;6.30;0.98;;;30.00;76.30;;;;;;6261102;28;20068;-82
2022/09/14 11:52:32;;;;;;;;;;;29.70;76.20;;;;;;6260004;28;20045;-83
2022/09/14 11:55:34;;;;;;;3.17;1.40;;;29.50;78.20;;;;;;6261931;28;19984;-82
2022/09/14 11:58:37;;;;;;;3.17;0.88;;;29.00;78.90;;;;;;6260099;28;20056;-83
2022/09/14 12:01:40;;;;;;;3.38;0.80;;;28.70;80.60;;;;;;6257942;28;20051;-82
2022/09/14 12:05:28;;;;;;;6.43;1.40;;;28.40;81.90;;;;;;6255037;28;20056;-80
2022/09/14 12:08:39;;;;;;;2.92;0.98;;;28.20;83.90;;;;;;6255450;28;20061;-82
2022/09/14 12:11:42;;;;;;;4.88;1.40;;;27.90;84.20;;;;;;6257714;28;20049;-81
2022/09/14 12:14:44;;;;;;;3.50;1.13;;;27.70;85.10;;;;;;6257493;28;20045;-81
2022/09/14 12:17:46;;;;;;;6.65;1.13;;;27.50;87.00;;;;;;6257985;28;20056;-80
2022/09/14 12:20:59;;;;;;;4.38;1.48;;;27.30;90.00;;;;;;6256644;28;20060;-81
2022/09/14 12:24:14;;;;;;;5.03;1.40;;;26.90;91.60;;;;;;6257659;28;20052;-80
2022/09/14 12:27:21;;;;;;;12.82;2.30;;;26.20;94.00;;;;;;6237115;28;20046;-83
2022/09/14 12:31:06;;;;;;;0.35;0.10;;;25.50;96.10;;;;;;6256734;28;20042;-82
2022/09/14 12:39:27;;;;;;;0.00;0.00;;;22.00;99.90;;;;;;6255523;28;20144;-84
2022/09/14 13:18:46;;;;;;;0.00;0.00;;;19.40;99.90;;;;;;6108529;28;20048;-86
2022/09/14 13:22:26;;;;;;;0.00;0.00;;;19.50;99.90;;;;;;6196703;28;20515;-84
2022/09/14 13:25:52;;;;;;;0.00;0.00;;;19.70;99.90;;;;;;6222658;28;20119;-84
2022/09/14 13:28:57;;;;;;;0.00;0.00;;;19.80;99.90;;;;;;6239371;28;20053;-84
2022/09/14 13:32:01;;;;;;;0.00;0.00;;;20.10;99.90;;;;;;6248935;28;20514;-84
2022/09/14 13:35:34;;;;;;;0.00;0.00;;;20.20;99.90;;;;;;6245685;28;20057;-84
2022/09/14 13:38:39;;;;;;;0.00;0.00;;;20.30;99.90;;;;;;6245578;28;20049;-84
2022/09/14 13:41:43;;;;;;;0.00;0.00;;;20.40;99.90;;;;;;6245665;28;20041;-84
2022/09/14 13:44:48;;;;;;;0.00;0.00;;;20.50;99.90;;;;;;6249125;28;20045;-84
2022/09/14 13:51:27;;;;;;;1.35;1.27;;;20.70;99.90;;;;;;6249073;28;20057;-84
2022/09/14 13:54:30;;;;;;;0.00;0.00;;;20.70;99.90;;;;;;6248903;28;20041;-84
2022/09/14 13:57:31;;;;;;;0.00;0.00;;;20.80;99.90;;;;;;6249533;28;20053;-84
2022/09/14 14:00:48;;;;;;;0.00;0.00;;;20.80;99.90;;;;;;6243861;28;20068;-84
2022/09/14 14:03:50;;;;;;;0.00;0.00;;;20.80;99.90;;;;;;6259920;28;20060;-84
2022/09/14 14:07:04;;;;;;;0.00;0.00;;;20.80;99.90;;;;;;6248284;28;20512;-84
2022/09/14 14:10:07;;;;;;;0.00;0.00;;;20.80;99.90;;;;;;6247760;28;20109;-83
2022/09/14 14:13:09;;;;;;;0.00;0.00;;;20.80;99.90;;;;;;6251746;28;20100;-84
2022/09/14 14:16:16;;;;;;;0.00;0.00;;;20.80;99.90;;;;;;6254881;28;20045;-85
2022/09/14 14:19:29;;;;;;;0.00;0.00;;;20.90;99.90;;;;;;6254742;28;20057;-84
2022/09/14 14:22:36;;;;;;;0.00;0.00;;;20.80;99.90;;;;;;6258001;28;20073;-84
2022/09/14 14:25:40;;;;;;;0.00;0.00;;;20.70;99.90;;;;;;6254856;28;20048;-85
2022/09/14 14:28:43;;;;;;;0.00;0.00;;;20.80;99.90;;;;;;6254578;28;20046;-83
2022/09/14 14:31:45;;;;;;;0.00;0.00;;;20.80;99.90;;;;;;6255428;28;20077;-83
2022/09/14 14:34:46;;;;;;;0.00;0.00;;;20.90;99.90;;;;;;6254458;28;20049;-83
2022/09/14 14:37:50;;;;;;;0.00;0.00;;;21.00;99.90;;;;;;6253338;28;20037;-82
2022/09/14 14:40:56;;;;;;;0.00;0.00;;;21.10;99.90;;;;;;6252740;28;20045;-83
2022/09/14 14:43:57;;;;;;;0.00;0.00;;;21.10;99.90;;;;;;6254136;28;20053;-82
2022/09/14 14:47:00;;;;;;;0.00;0.00;;;21.20;99.90;;;;;;6253538;28;20586;-83
2022/09/14 14:50:02;;;;;;;0.00;0.00;;;21.20;99.90;;;;;;6254174;28;20049;-83
2022/09/14 14:53:06;;;;;;;0.35;0.35;;;21.20;99.90;;;;;;6254005;28;20115;-83
2022/09/14 14:56:10;;;;;;;12.45;4.85;;;21.10;99.90;;;;;;6253954;28;20491;-82
2022/09/14 14:59:23;;;;;;;0.00;0.00;;;21.10;99.90;;;;;;6254856;28;20049;-83
2022/09/14 15:02:25;;;;;;;0.00;0.00;;;21.00;99.90;;;;;;6253224;28;20053;-83
2022/09/14 15:05:27;;;;;;;0.00;0.00;;;21.00;99.90;;;;;;6245604;28;20048;-84
2022/09/14 15:08:30;;;;;;;0.45;0.30;;;21.00;99.90;;;;;;6232208;28;20042;-83
2022/09/14 15:11:34;;;;;;;0.00;0.00;;;21.00;99.90;;;;;;6229242;28;20057;-83
2022/09/14 15:14:36;;;;;;;0.00;0.00;;;21.00;99.90;;;;;;6232089;28;20113;-83
2022/09/14 15:17:37;;;;;;;0.00;0.00;;;21.00;99.90;;;;;;6235987;28;20052;-83
2022/09/14 15:20:39;;;;;;;0.00;0.00;;;21.20;99.90;;;;;;6241118;28;20052;-82
2022/09/14 15:23:42;;;;;;;0.65;0.38;;;21.20;99.90;;;;;;6241252;28;20514;-81
2022/09/14 15:26:44;;;;;;;0.00;0.00;;;21.30;99.90;;;;;;6259307;28;20045;-82
2022/09/14 15:29:46;;;;;;;0.00;0.00;;;21.40;99.90;;;;;;6257346;28;20057;-81
2022/09/14 15:32:47;;;;;;;0.00;0.00;;;21.50;99.90;;;;;;6256830;28;20045;-80
2022/09/14 15:35:55;;;;;;;0.00;0.00;;;21.60;99.90;;;;;;6258891;28;20056;-82
2022/09/14 15:38:58;;;;;;;0.00;0.00;;;21.70;99.90;;;;;;6253857;28;20624;-82
2022/09/14 15:42:00;;;;;;;0.00;0.00;;;21.70;99.90;;;;;;6254243;28;20046;-82
2022/09/14 15:45:02;;;;;;;0.00;0.00;;;21.70;99.90;;;;;;6253604;28;20048;-82
2022/09/14 15:48:04;;;;;;;0.00;0.00;;;21.60;99.90;;;;;;6254708;28;20049;-82
2022/09/14 15:51:10;;;;;;;0.00;0.00;;;21.70;99.90;;;;;;6253180;28;20049;-81
2022/09/14 15:54:13;;;;;;;0.00;0.00;;;21.80;99.90;;;;;;6254229;28;20072;-82
2022/09/14 15:57:15;;;;;;;0.00;0.00;;;21.80;99.90;;;;;;6254664;28;20037;-84
2022/09/14 16:00:18;;;;;;;0.00;0.00;;;21.90;99.90;;;;;;6254367;28;20060;-82
2022/09/14 16:03:20;;;;;;;0.00;0.00;;;22.00;99.90;;;;;;6255176;28;20184;-84
2022/09/14 16:06:21;;;;;;;0.00;0.00;;;22.20;99.90;;;;;;6253214;28;20045;-84
2022/09/14 16:09:25;;;;;;;0.00;0.00;;;22.30;99.90;;;;;;6254090;28;20041;-83
2022/09/14 16:12:26;;;;;;;0.85;0.55;;;22.40;99.90;;;;;;6255690;28;20049;-82
2022/09/14 16:15:28;;;;;;;4.18;0.90;;;22.30;99.90;;;;;;6256434;28;20053;-81
2022/09/14 16:18:30;;;;;;;7.78;0.80;;;22.20;99.90;;;;;;6254051;28;20048;-81
2022/09/14 16:21:32;;;;;;;4.30;0.80;;;22.10;99.90;;;;;;6254857;28;20447;-81
2022/09/14 16:27:39;;;;;;;2.92;0.70;;;21.90;99.90;;;;;;6273025;28;20048;-82
2022/09/14 16:30:40;;;;;;;2.75;0.70;;;21.80;99.90;;;;;;6279789;28;20052;-80
2022/09/14 16:33:44;;;;;;;2.55;0.80;;;21.70;99.90;;;;;;6282165;28;20049;-79
2022/09/14 16:36:46;;;;;;;2.58;1.10;;;21.60;99.90;;;;;;6268958;28;20527;-79
2022/09/14 16:39:49;;;;;;;2.95;0.90;;;21.60;99.90;;;;;;6239904;28;20061;-80
2022/09/14 16:42:52;;;;;;;1.65;0.90;;;21.60;99.90;;;;;;6231019;28;20045;-80